Time;durP1;ratioP1;P1;durP2;ratioP2;P2;SDS_P1;SDS_P2;PMS_P1;PMS_P2;Temp;Humidity;BMP_temperature;BMP_pressure;BME280_temperature;BME280_humidity;BME280_pressure;Samples;Min_cycle;Max_cycle;Signal;HPM_P1;HPM_P2
2022/11/10 00:00:07;;;;;;;12.48;2.50;;;13.50;99.90;;;;;;5049108;28;20060;-81
2022/11/10 00:02:53;;;;;;;12.07;2.42;;;13.50;99.90;;;;;;5043264;28;20125;-81
2022/11/10 00:05:39;;;;;;;13.70;2.90;;;13.60;99.90;;;;;;5044086;28;20215;-81
2022/11/10 00:08:26;;;;;;;8.40;2.47;;;13.50;99.90;;;;;;5046108;28;20051;-80
2022/11/10 00:11:11;;;;;;;15.18;3.17;;;13.50;99.90;;;;;;5043367;28;20524;-81
2022/11/10 00:17:00;;;;;;;7.80;2.33;;;13.50;99.90;;;;;;5042124;28;20103;-81
2022/11/10 00:19:46;;;;;;;12.20;2.65;;;13.50;99.90;;;;;;5043998;28;20055;-81
2022/11/10 00:22:31;;;;;;;12.73;2.47;;;13.50;99.90;;;;;;5042530;28;20059;-81
2022/11/10 00:25:18;;;;;;;11.52;3.35;;;13.50;99.90;;;;;;5039970;28;20417;-81
2022/11/10 00:28:04;;;;;;;10.85;2.45;;;13.50;99.90;;;;;;5040997;28;20138;-81
2022/11/10 00:30:50;;;;;;;10.18;2.63;;;13.40;99.90;;;;;;5043173;28;20126;-81
2022/11/10 00:33:36;;;;;;;10.88;2.95;;;13.40;99.90;;;;;;5041716;28;20072;-81
2022/11/10 00:36:21;;;;;;;12.25;2.50;;;13.40;99.90;;;;;;5042471;28;20078;-81
2022/11/10 00:39:08;;;;;;;11.25;2.75;;;13.40;99.90;;;;;;5042261;28;20048;-80
2022/11/10 00:41:55;;;;;;;12.55;3.13;;;13.40;99.90;;;;;;5041734;28;20078;-81
2022/11/10 00:44:40;;;;;;;13.85;2.90;;;13.40;99.90;;;;;;5041491;28;20061;-81
2022/11/10 00:47:26;;;;;;;14.70;2.88;;;13.40;99.90;;;;;;5043591;28;20064;-81
2022/11/10 00:50:11;;;;;;;18.33;3.00;;;13.40;99.90;;;;;;5042355;28;20666;-81
2022/11/10 00:52:57;;;;;;;13.50;3.00;;;13.40;99.90;;;;;;5042146;28;20048;-81
2022/11/10 00:55:42;;;;;;;13.60;2.90;;;13.40;99.90;;;;;;5045467;28;20056;-81
2022/11/10 00:58:29;;;;;;;10.63;2.45;;;13.30;99.90;;;;;;5040708;28;20722;-80
2022/11/10 01:01:15;;;;;;;11.63;2.33;;;13.30;99.90;;;;;;5041536;28;20059;-81
2022/11/10 01:04:01;;;;;;;13.35;2.50;;;13.30;99.90;;;;;;5041611;28;20056;-81
2022/11/10 01:06:47;;;;;;;9.40;2.53;;;13.20;99.90;;;;;;5041473;28;20094;-80
2022/11/10 01:09:32;;;;;;;11.15;2.60;;;13.40;99.90;;;;;;5038775;28;20154;-81
2022/11/10 01:12:18;;;;;;;19.10;2.63;;;13.30;99.90;;;;;;5041213;28;20417;-81
2022/11/10 01:15:06;;;;;;;11.98;2.55;;;13.20;99.90;;;;;;5040843;28;20109;-80
2022/11/10 01:17:51;;;;;;;17.65;2.92;;;13.20;99.90;;;;;;5041035;28;20052;-81
2022/11/10 01:20:36;;;;;;;13.90;3.25;;;13.40;99.90;;;;;;5041325;28;20063;-81
2022/11/10 01:23:26;;;;;;;11.40;2.70;;;13.20;99.90;;;;;;5041464;28;20051;-81
2022/11/10 01:26:12;;;;;;;12.50;2.58;;;13.20;99.90;;;;;;5039027;28;20160;-81
2022/11/10 01:28:58;;;;;;;13.88;2.67;;;13.20;99.90;;;;;;5043214;28;20529;-81
2022/11/10 01:31:50;;;;;;;12.23;2.15;;;13.20;99.90;;;;;;5041328;28;20064;-81
2022/11/10 01:34:35;;;;;;;14.98;3.08;;;13.20;99.90;;;;;;5040056;28;20130;-81
2022/11/10 01:37:21;;;;;;;12.77;2.42;;;13.20;99.90;;;;;;5040172;28;20075;-81
2022/11/10 01:40:18;;;;;;;10.38;2.60;;;13.20;99.90;;;;;;5041239;28;20052;-81
2022/11/10 01:43:09;;;;;;;15.05;2.90;;;13.20;99.90;;;;;;5042449;28;20064;-81
2022/11/10 01:45:55;;;;;;;15.88;2.92;;;13.10;99.90;;;;;;5040229;28;20087;-80
2022/11/10 01:49:00;;;;;;;13.30;2.70;;;13.20;99.90;;;;;;5040340;28;20067;-81
2022/11/10 01:51:49;;;;;;;9.60;2.35;;;13.20;99.90;;;;;;5039714;28;20191;-81
2022/11/10 01:54:37;;;;;;;8.57;2.20;;;13.20;99.90;;;;;;5041299;28;20859;-81
2022/11/10 01:57:22;;;;;;;14.15;2.40;;;13.20;99.90;;;;;;5041271;28;20056;-81
2022/11/10 02:00:10;;;;;;;13.75;2.80;;;13.20;99.90;;;;;;5040273;28;20056;-80
2022/11/10 02:03:02;;;;;;;14.80;2.80;;;13.20;99.90;;;;;;5040689;28;20080;-81
2022/11/10 02:05:49;;;;;;;15.65;2.33;;;13.20;99.90;;;;;;5040287;28;20167;-81
2022/11/10 02:08:35;;;;;;;12.93;2.97;;;13.20;99.90;;;;;;5040008;28;20227;-81
2022/11/10 02:11:21;;;;;;;13.52;2.55;;;13.20;99.90;;;;;;5038506;28;20056;-81
2022/11/10 02:14:08;;;;;;;12.13;2.58;;;13.10;99.90;;;;;;5044614;28;20051;-81
2022/11/10 02:16:53;;;;;;;11.90;2.20;;;13.20;99.90;;;;;;5045443;28;20631;-80
2022/11/10 02:19:41;;;;;;;13.57;3.38;;;13.30;99.90;;;;;;5042249;28;20143;-81
2022/11/10 02:22:28;;;;;;;8.00;2.38;;;13.20;99.90;;;;;;5042421;28;20186;-81
2022/11/10 02:25:15;;;;;;;15.70;2.42;;;13.20;99.90;;;;;;5040097;28;20060;-81
2022/11/10 02:28:01;;;;;;;12.88;2.78;;;13.20;99.90;;;;;;5041717;28;20126;-81
2022/11/10 02:30:47;;;;;;;14.07;3.00;;;13.20;99.90;;;;;;5040632;28;20433;-80
2022/11/10 02:33:32;;;;;;;12.98;2.63;;;13.20;99.90;;;;;;5039163;28;20536;-80
2022/11/10 02:36:18;;;;;;;13.45;2.60;;;13.30;99.90;;;;;;5039076;28;20421;-80
2022/11/10 02:39:04;;;;;;;11.20;2.38;;;13.20;99.90;;;;;;5040784;28;20230;-81
2022/11/10 02:41:50;;;;;;;16.48;3.53;;;13.20;99.90;;;;;;5039935;28;20133;-81
2022/11/10 02:44:36;;;;;;;21.33;3.30;;;13.20;99.90;;;;;;5040360;28;20194;-81
2022/11/10 02:47:22;;;;;;;9.75;2.50;;;13.20;99.90;;;;;;5045589;28;20071;-81
2022/11/10 02:50:08;;;;;;;15.70;2.78;;;13.20;99.90;;;;;;5044148;28;20083;-81
2022/11/10 02:52:53;;;;;;;14.40;2.63;;;13.20;99.90;;;;;;5044467;28;20417;-81
2022/11/10 02:55:43;;;;;;;14.95;2.95;;;13.10;99.90;;;;;;5042824;28;20056;-81
2022/11/10 02:58:28;;;;;;;17.13;2.65;;;13.20;99.90;;;;;;5045219;28;20056;-81
2022/11/10 03:01:14;;;;;;;11.65;2.95;;;13.20;99.90;;;;;;5043607;28;20170;-81
2022/11/10 03:03:59;;;;;;;15.02;3.50;;;13.10;99.90;;;;;;5044269;28;20056;-80
2022/11/10 03:06:48;;;;;;;13.55;2.90;;;13.10;99.90;;;;;;5044562;28;20619;-81
2022/11/10 03:09:34;;;;;;;10.50;2.38;;;13.10;99.90;;;;;;5043644;28;20477;-81
2022/11/10 03:12:24;;;;;;;14.60;3.25;;;13.10;99.90;;;;;;5043100;28;20113;-80
2022/11/10 03:15:11;;;;;;;18.17;2.88;;;13.10;99.90;;;;;;5043709;28;20072;-81
2022/11/10 03:17:57;;;;;;;14.82;2.88;;;13.10;99.90;;;;;;5043833;28;20057;-81
2022/11/10 03:20:43;;;;;;;16.23;2.38;;;13.10;99.90;;;;;;5045379;28;20051;-81
2022/11/10 03:27:01;;;;;;;;;;;13.10;99.90;;;;;;5047698;28;20117;-80
2022/11/10 03:29:47;;;;;;;13.85;2.72;;;13.10;99.90;;;;;;5046236;28;20001;-80
2022/11/10 03:32:33;;;;;;;11.70;3.08;;;13.00;99.90;;;;;;5048777;28;20056;-81
2022/11/10 03:35:18;;;;;;;13.80;2.60;;;13.10;99.90;;;;;;5043573;28;20523;-81
2022/11/10 03:38:04;;;;;;;11.35;2.65;;;13.10;99.90;;;;;;5044265;28;20631;-81
2022/11/10 03:40:50;;;;;;;16.25;2.95;;;13.10;99.90;;;;;;5043815;28;20059;-81
2022/11/10 03:43:35;;;;;;;19.23;3.65;;;13.10;99.90;;;;;;5043490;28;20055;-80
2022/11/10 03:46:24;;;;;;;17.33;2.70;;;13.10;99.90;;;;;;5044674;28;20539;-81
2022/11/10 03:49:10;;;;;;;13.48;2.85;;;13.10;99.90;;;;;;5043303;28;20516;-81
2022/11/10 03:51:55;;;;;;;15.73;2.60;;;13.10;99.90;;;;;;5042455;28;20078;-81
2022/11/10 03:54:41;;;;;;;13.43;2.95;;;13.00;99.90;;;;;;5042756;28;20072;-81
2022/11/10 03:57:27;;;;;;;14.30;3.10;;;13.10;99.90;;;;;;5042364;28;20052;-81
2022/11/10 04:00:14;;;;;;;12.98;2.72;;;13.30;99.90;;;;;;5058998;22;20861;-82
2022/11/10 04:03:01;;;;;;;19.02;4.18;;;13.10;99.90;;;;;;5041756;28;20067;-82
2022/11/10 04:18:19;;;;;;;17.08;2.70;;;13.10;99.90;;;;;;5044241;28;20118;-82
2022/11/10 04:21:03;;;;;;;15.20;2.83;;;13.00;99.90;;;;;;5040853;28;20051;-82
2022/11/10 04:23:48;;;;;;;14.13;2.80;;;13.00;99.90;;;;;;5043715;28;20106;-83
2022/11/10 04:26:37;;;;;;;10.48;2.33;;;13.00;99.90;;;;;;5040643;28;20047;-82
2022/11/10 04:29:22;;;;;;;13.25;2.58;;;13.00;99.90;;;;;;5040774;28;20127;-82
2022/11/10 04:32:08;;;;;;;18.77;3.20;;;13.00;99.90;;;;;;5042824;28;20063;-83
2022/11/10 04:34:53;;;;;;;16.77;2.88;;;13.00;99.90;;;;;;5037379;28;20111;-82
2022/11/10 04:37:40;;;;;;;12.07;2.53;;;12.90;99.90;;;;;;5040499;28;20078;-82
2022/11/10 04:40:26;;;;;;;13.80;2.83;;;12.90;99.90;;;;;;5046040;28;20531;-82
2022/11/10 04:43:11;;;;;;;22.02;3.45;;;12.90;99.90;;;;;;5048549;28;20063;-82
2022/11/10 04:45:57;;;;;;;22.95;3.30;;;12.90;99.90;;;;;;5047368;28;20523;-82
2022/11/10 04:48:43;;;;;;;15.95;2.65;;;12.90;99.90;;;;;;5049659;28;20109;-83
2022/11/10 04:51:30;;;;;;;19.73;2.90;;;12.90;99.90;;;;;;5040561;28;20109;-82
2022/11/10 04:54:17;;;;;;;14.80;3.22;;;12.90;99.90;;;;;;5043573;28;20158;-82
2022/11/10 04:57:02;;;;;;;11.85;2.90;;;12.90;99.90;;;;;;5042388;28;20083;-83
2022/11/10 04:59:48;;;;;;;15.23;2.67;;;12.90;99.90;;;;;;5042841;28;20110;-83
2022/11/10 05:02:33;;;;;;;17.42;3.38;;;12.90;99.90;;;;;;5042721;28;20427;-82
2022/11/10 05:05:19;;;;;;;23.13;3.15;;;12.90;99.90;;;;;;5042243;28;20056;-83
2022/11/10 05:08:05;;;;;;;17.58;3.03;;;12.90;99.90;;;;;;5042140;28;20056;-83
2022/11/10 05:10:52;;;;;;;16.00;3.20;;;12.90;99.90;;;;;;5040491;28;20060;-85
2022/11/10 05:13:38;;;;;;;16.92;2.83;;;12.90;99.90;;;;;;5043221;28;20150;-84
2022/11/10 05:16:23;;;;;;;12.65;2.90;;;12.90;99.90;;;;;;5041309;28;20111;-81
2022/11/10 05:19:08;;;;;;;16.02;3.00;;;12.90;99.90;;;;;;5042398;28;20129;-82
2022/11/10 05:21:54;;;;;;;17.90;3.13;;;12.90;99.90;;;;;;5040714;28;20512;-82
2022/11/10 05:24:40;;;;;;;20.92;3.63;;;12.90;99.90;;;;;;5041284;28;20056;-82
2022/11/10 05:27:28;;;;;;;19.05;3.45;;;12.90;99.90;;;;;;5040158;28;20187;-83
2022/11/10 05:30:15;;;;;;;13.50;2.75;;;12.90;99.90;;;;;;5042052;28;20110;-83
2022/11/10 05:33:01;;;;;;;15.10;3.45;;;12.90;99.90;;;;;;5041365;28;20056;-82
2022/11/10 05:35:48;;;;;;;19.30;3.25;;;12.90;99.90;;;;;;5040798;28;20056;-86
2022/11/10 05:38:34;;;;;;;15.57;2.88;;;12.90;99.90;;;;;;5046542;28;20068;-82
2022/11/10 05:41:20;;;;;;;18.25;3.08;;;12.90;99.90;;;;;;5049194;28;20056;-84
2022/11/10 05:44:07;;;;;;;13.30;3.25;;;13.00;99.90;;;;;;5047800;28;20060;-80
2022/11/10 05:46:52;;;;;;;15.68;3.10;;;12.90;99.90;;;;;;5047216;28;20059;-79
2022/11/10 05:49:38;;;;;;;16.40;2.88;;;12.90;99.90;;;;;;5048921;28;20628;-80
2022/11/10 05:52:23;;;;;;;14.13;3.13;;;12.90;99.90;;;;;;5047753;28;20072;-79
2022/11/10 05:55:09;;;;;;;12.57;3.25;;;12.90;99.90;;;;;;5031012;28;20052;-80
2022/11/10 05:57:56;;;;;;;17.45;2.83;;;12.90;99.90;;;;;;5038352;28;20570;-81
2022/11/10 06:00:43;;;;;;;12.18;3.03;;;12.90;99.90;;;;;;5043217;28;20151;-82
2022/11/10 06:03:28;;;;;;;15.40;3.47;;;12.90;99.90;;;;;;5046388;28;20064;-81
2022/11/10 06:06:14;;;;;;;20.00;3.70;;;12.90;99.90;;;;;;5046246;28;20094;-81
2022/11/10 06:08:59;;;;;;;12.65;3.17;;;12.90;99.90;;;;;;5043023;28;20048;-81
2022/11/10 06:11:45;;;;;;;16.17;3.20;;;12.80;99.90;;;;;;5046325;28;20059;-81
2022/11/10 06:14:30;;;;;;;19.77;4.32;;;12.80;99.90;;;;;;5036281;28;20336;-81
2022/11/10 06:17:18;;;;;;;14.32;3.50;;;12.80;99.90;;;;;;5038400;28;20235;-81
2022/11/10 06:20:04;;;;;;;12.90;3.25;;;12.80;99.90;;;;;;5041564;28;20164;-79
2022/11/10 06:23:00;;;;;;;20.65;3.42;;;12.80;99.90;;;;;;5048683;28;20060;-79
2022/11/10 06:25:49;;;;;;;15.93;3.08;;;12.90;99.90;;;;;;5033640;28;20793;-79
2022/11/10 06:28:34;;;;;;;17.05;3.13;;;12.80;99.90;;;;;;5041011;28;20517;-80
2022/11/10 06:31:20;;;;;;;16.67;3.10;;;12.80;99.90;;;;;;5039591;28;20477;-80
2022/11/10 06:34:07;;;;;;;21.23;3.33;;;12.80;99.90;;;;;;5046140;28;20055;-78
2022/11/10 06:36:52;;;;;;;17.23;3.10;;;12.80;99.90;;;;;;5049096;28;20147;-79
2022/11/10 06:39:38;;;;;;;19.67;2.75;;;12.80;99.90;;;;;;5048886;28;20151;-78
2022/11/10 06:42:24;;;;;;;14.90;2.92;;;12.80;99.90;;;;;;5048432;28;20421;-78
2022/11/10 06:45:10;;;;;;;17.40;3.03;;;12.70;99.90;;;;;;5047831;28;20056;-79
2022/11/10 06:48:03;;;;;;;15.73;2.70;;;12.80;99.90;;;;;;5049028;28;20055;-79
2022/11/10 06:50:50;;;;;;;15.68;3.05;;;12.80;99.90;;;;;;5044012;28;20056;-82
2022/11/10 06:53:35;;;;;;;12.95;2.65;;;12.80;99.90;;;;;;5029308;28;20094;-80
2022/11/10 06:56:20;;;;;;;14.57;3.13;;;12.80;99.90;;;;;;5028177;28;20537;-81
2022/11/10 06:59:06;;;;;;;14.10;2.90;;;12.80;99.90;;;;;;5032837;28;20052;-79
2022/11/10 07:01:52;;;;;;;13.48;2.70;;;12.80;99.90;;;;;;5040465;28;20130;-81
2022/11/10 07:04:37;;;;;;;12.13;2.63;;;12.80;99.90;;;;;;5034262;28;20072;-82
2022/11/10 07:07:24;;;;;;;19.13;2.95;;;12.80;99.90;;;;;;5034297;28;20043;-81
2022/11/10 07:10:10;;;;;;;14.63;2.75;;;12.80;99.90;;;;;;5048267;28;20105;-81
2022/11/10 07:12:58;;;;;;;21.20;3.22;;;12.80;99.90;;;;;;5048575;28;20152;-81
2022/11/10 07:15:44;;;;;;;18.90;2.95;;;12.80;99.90;;;;;;5047878;28;20489;-81
2022/11/10 07:18:29;;;;;;;22.45;3.08;;;12.80;99.90;;;;;;5048461;28;20569;-81
2022/11/10 07:21:15;;;;;;;19.05;3.50;;;12.80;99.90;;;;;;5046873;28;20098;-81
2022/11/10 07:24:02;;;;;;;8.88;2.67;;;12.80;99.90;;;;;;5048194;28;20087;-81
2022/11/10 07:26:47;;;;;;;15.90;3.22;;;12.90;99.90;;;;;;5048392;28;20060;-81
2022/11/10 07:29:33;;;;;;;17.52;3.20;;;12.80;99.90;;;;;;5048266;28;20056;-81
2022/11/10 07:32:18;;;;;;;18.92;4.10;;;12.90;99.90;;;;;;5050128;28;20068;-81
2022/11/10 07:35:04;;;;;;;18.73;3.20;;;12.90;99.90;;;;;;5051481;28;20071;-81
2022/11/10 07:37:50;;;;;;;17.42;3.15;;;12.90;99.90;;;;;;5043510;28;20072;-82
2022/11/10 07:40:37;;;;;;;14.18;2.80;;;12.90;99.90;;;;;;5045887;28;20052;-81
2022/11/10 07:43:24;;;;;;;15.32;2.97;;;12.90;99.90;;;;;;5052169;28;20052;-81
2022/11/10 07:46:10;;;;;;;16.13;3.10;;;12.90;99.90;;;;;;5051044;28;20059;-81
2022/11/10 07:48:56;;;;;;;16.23;2.88;;;12.90;99.90;;;;;;5051681;28;20052;-81
2022/11/10 07:51:42;;;;;;;14.45;3.08;;;12.90;99.90;;;;;;5051933;28;20091;-81
2022/11/10 07:54:28;;;;;;;18.45;3.85;;;12.90;99.90;;;;;;5043990;28;20418;-81
2022/11/10 07:57:15;;;;;;;19.27;3.75;;;12.90;99.90;;;;;;5043002;28;20127;-81
2022/11/10 08:00:00;;;;;;;18.73;3.40;;;12.90;99.90;;;;;;5045525;28;20052;-82
2022/11/10 08:02:46;;;;;;;13.45;2.63;;;12.90;99.90;;;;;;5051068;28;20397;-81
2022/11/10 08:05:31;;;;;;;12.45;3.08;;;13.00;99.90;;;;;;5050907;28;20138;-81
2022/11/10 08:08:17;;;;;;;17.92;3.10;;;12.90;99.90;;;;;;5051662;28;20417;-81
2022/11/10 08:11:02;;;;;;;14.95;3.10;;;12.90;99.90;;;;;;5051265;28;20219;-81
2022/11/10 08:13:49;;;;;;;16.65;3.42;;;13.00;99.90;;;;;;5051257;28;20059;-81
2022/11/10 08:16:34;;;;;;;17.65;3.50;;;13.10;99.90;;;;;;5047933;28;20063;-81
2022/11/10 08:19:20;;;;;;;17.63;3.45;;;13.00;99.90;;;;;;5042944;28;20044;-81
2022/11/10 08:22:05;;;;;;;19.10;3.85;;;13.00;99.90;;;;;;5051016;28;20187;-82
2022/11/10 08:24:51;;;;;;;15.30;3.08;;;13.00;99.90;;;;;;5050651;28;20056;-81
2022/11/10 08:27:36;;;;;;;21.98;4.93;;;13.00;99.90;;;;;;5051352;28;20550;-79
2022/11/10 08:30:23;;;;;;;20.95;4.32;;;13.10;99.90;;;;;;5051002;28;20171;-82
2022/11/10 08:33:10;;;;;;;15.63;3.85;;;13.10;99.90;;;;;;5049792;28;20528;-80
2022/11/10 08:35:56;;;;;;;11.57;3.28;;;13.10;99.90;;;;;;5050339;28;20102;-80
2022/11/10 08:38:41;;;;;;;16.30;3.38;;;13.10;99.90;;;;;;5050797;28;20077;-80
2022/11/10 08:41:27;;;;;;;14.10;3.53;;;13.20;99.90;;;;;;5050887;28;20091;-80
2022/11/10 08:44:13;;;;;;;16.17;3.50;;;13.20;99.90;;;;;;5050271;28;20099;-79
2022/11/10 08:47:00;;;;;;;12.73;3.22;;;13.30;99.90;;;;;;5050683;28;20146;-79
2022/11/10 08:49:45;;;;;;;19.95;3.95;;;13.30;99.90;;;;;;5049341;28;20048;-82
2022/11/10 08:52:30;;;;;;;18.58;3.45;;;13.30;99.90;;;;;;5043979;28;20567;-82
2022/11/10 08:55:16;;;;;;;18.23;3.13;;;13.30;99.90;;;;;;5050093;28;20386;-79
2022/11/10 08:58:03;;;;;;;13.82;2.90;;;13.30;99.90;;;;;;5050769;28;20149;-80
2022/11/10 09:00:49;;;;;;;17.33;3.20;;;13.30;99.90;;;;;;5050646;28;20536;-80
2022/11/10 09:03:35;;;;;;;16.02;3.65;;;13.40;99.90;;;;;;5049913;28;20047;-80
2022/11/10 09:06:23;;;;;;;17.42;3.28;;;13.40;99.90;;;;;;5040876;28;20138;-79
2022/11/10 09:09:09;;;;;;;16.27;3.13;;;13.40;99.90;;;;;;5050286;28;20056;-80
2022/11/10 09:11:54;;;;;;;14.00;3.88;;;13.40;99.90;;;;;;5050388;28;20052;-80
2022/11/10 09:14:40;;;;;;;29.33;3.53;;;13.50;99.90;;;;;;5049729;28;20149;-82
2022/11/10 09:17:27;;;;;;;13.60;3.28;;;13.40;99.90;;;;;;5050395;28;20056;-80
2022/11/10 09:20:14;;;;;;;16.85;3.83;;;13.50;99.90;;;;;;5050279;28;20103;-80
2022/11/10 09:23:04;;;;;;;16.02;3.47;;;13.50;99.90;;;;;;5048405;28;20536;-80
2022/11/10 09:25:51;;;;;;;25.15;3.92;;;13.50;99.90;;;;;;5049192;28;20056;-80
2022/11/10 09:28:36;;;;;;;16.67;3.80;;;13.50;99.90;;;;;;5049950;28;20428;-80
2022/11/10 09:31:22;;;;;;;14.75;3.58;;;13.50;99.90;;;;;;5050041;28;20102;-80
2022/11/10 09:34:08;;;;;;;15.90;3.58;;;13.50;99.90;;;;;;5049908;28;20060;-80
2022/11/10 09:36:55;;;;;;;18.83;3.60;;;13.60;99.90;;;;;;5042454;28;20414;-80
2022/11/10 09:39:40;;;;;;;20.05;4.22;;;13.60;99.90;;;;;;5044423;28;20238;-80
2022/11/10 09:42:30;;;;;;;14.85;3.25;;;13.60;99.90;;;;;;5049842;28;20105;-80
2022/11/10 09:45:22;;;;;;;14.82;3.70;;;13.70;99.90;;;;;;5048859;28;20072;-80
2022/11/10 09:48:14;;;;;;;17.17;3.50;;;13.70;99.90;;;;;;5049783;28;20075;-80
2022/11/10 09:51:03;;;;;;;13.48;3.28;;;13.80;99.90;;;;;;5049321;28;20138;-80
2022/11/10 09:53:52;;;;;;;13.30;3.45;;;13.70;99.90;;;;;;5049614;28;20070;-80
2022/11/10 09:56:38;;;;;;;18.48;3.80;;;13.80;99.90;;;;;;5041974;28;20052;-80
2022/11/10 09:59:26;;;;;;;20.55;3.83;;;13.80;99.90;;;;;;5029695;28;20060;-80
2022/11/10 10:02:23;;;;;;;18.23;4.10;;;13.80;99.90;;;;;;5079645;22;20047;-80
2022/11/10 10:05:35;;;;;;;23.05;4.03;;;13.80;99.90;;;;;;5067566;28;20059;-80
2022/11/10 10:08:26;;;;;;;15.15;3.75;;;13.80;99.90;;;;;;5069184;28;20101;-80
2022/11/10 10:11:16;;;;;;;;;;;13.90;99.90;;;;;;5069647;28;20539;-80
2022/11/10 10:14:11;;;;;;;18.20;3.35;;;13.90;99.90;;;;;;5057646;28;19931;-80
2022/11/10 10:17:02;;;;;;;15.48;3.25;;;13.90;99.90;;;;;;5032727;28;20111;-80
2022/11/10 10:19:52;;;;;;;17.43;3.40;;;13.90;99.90;;;;;;5029360;28;20231;-80
2022/11/10 10:23:00;;;;;;;24.80;4.07;;;14.00;99.90;;;;;;5029374;28;20291;-80
2022/11/10 10:25:46;;;;;;;13.35;3.20;;;14.00;99.90;;;;;;5028879;28;20060;-80
2022/11/10 10:28:40;;;;;;;18.95;3.70;;;14.00;99.90;;;;;;5040228;28;20055;-80
2022/11/10 10:31:27;;;;;;;13.98;3.28;;;14.00;99.90;;;;;;5041494;28;20049;-80
2022/11/10 10:34:15;;;;;;;15.77;3.50;;;14.10;99.90;;;;;;5049236;28;20063;-80
2022/11/10 10:37:00;;;;;;;16.25;3.85;;;14.10;99.90;;;;;;5049146;28;20453;-80
2022/11/10 10:39:48;;;;;;;21.63;3.80;;;14.20;99.90;;;;;;5049359;28;20052;-81
2022/11/10 10:42:35;;;;;;;12.32;3.08;;;14.20;99.90;;;;;;5049146;28;20067;-80
2022/11/10 10:45:24;;;;;;;14.18;3.15;;;14.20;99.90;;;;;;5051598;28;20183;-80
2022/11/10 10:48:27;;;;;;;14.90;3.45;;;14.20;99.90;;;;;;5030495;28;20052;-80
2022/11/10 10:51:28;;;;;;;20.83;3.63;;;14.20;99.90;;;;;;5029119;28;20053;-81
2022/11/10 10:54:24;;;;;;;18.40;3.50;;;14.20;99.90;;;;;;5028831;28;20441;-80
2022/11/10 10:57:21;;;;;;;16.23;3.53;;;14.30;99.90;;;;;;5029024;28;20091;-81
2022/11/10 11:00:19;;;;;;;18.70;3.30;;;14.30;99.90;;;;;;5029074;28;20056;-80
2022/11/10 11:03:10;;;;;;;20.55;3.75;;;14.30;99.90;;;;;;5045085;28;20558;-80
2022/11/10 11:06:05;;;;;;;15.55;3.60;;;14.30;99.90;;;;;;5039589;28;20421;-80
2022/11/10 11:08:57;;;;;;;16.63;3.45;;;14.40;99.90;;;;;;5033009;28;20127;-81
2022/11/10 11:11:44;;;;;;;13.60;3.60;;;14.40;99.90;;;;;;5032802;28;20192;-80
2022/11/10 11:14:30;;;;;;;25.77;3.40;;;14.40;99.90;;;;;;5032343;28;20063;-80
2022/11/10 11:17:20;;;;;;;16.17;4.07;;;14.40;99.90;;;;;;5032966;28;20103;-80
2022/11/10 11:20:14;;;;;;;18.63;3.40;;;14.50;99.90;;;;;;5032972;28;20520;-80
2022/11/10 11:23:02;;;;;;;20.45;3.75;;;14.50;99.90;;;;;;5041761;28;20063;-80
2022/11/10 11:25:49;;;;;;;19.30;3.72;;;14.50;99.90;;;;;;5052081;28;20060;-81
2022/11/10 11:28:41;;;;;;;19.38;3.22;;;14.60;99.90;;;;;;5052557;28;20210;-80
2022/11/10 11:31:33;;;;;;;14.45;2.90;;;14.60;99.90;;;;;;5052225;28;20048;-81
2022/11/10 11:34:24;;;;;;;21.33;3.05;;;14.70;99.90;;;;;;5052192;28;20529;-80
2022/11/10 11:37:18;;;;;;;21.10;3.20;;;14.70;99.90;;;;;;5051279;28;20073;-81
2022/11/10 11:40:14;;;;;;;16.23;2.80;;;14.70;99.90;;;;;;5032582;28;20064;-81
2022/11/10 11:43:09;;;;;;;15.80;2.42;;;14.70;99.90;;;;;;5017878;28;20080;-81
2022/11/10 11:45:57;;;;;;;16.83;2.97;;;14.70;99.90;;;;;;5031857;28;20060;-81
2022/11/10 11:48:51;;;;;;;15.48;2.42;;;14.80;99.90;;;;;;5032168;28;20052;-81
2022/11/10 11:51:42;;;;;;;17.90;2.40;;;14.70;99.90;;;;;;5040033;28;20051;-81
2022/11/10 11:54:38;;;;;;;21.02;3.03;;;14.80;99.90;;;;;;5040043;28;20440;-81
2022/11/10 11:57:30;;;;;;;13.40;2.42;;;14.80;99.90;;;;;;5032519;28;20052;-80
2022/11/10 12:00:17;;;;;;;16.20;2.92;;;14.90;99.90;;;;;;5032345;28;20148;-81
2022/11/10 12:03:17;;;;;;;13.10;2.38;;;14.90;99.90;;;;;;5032356;28;20172;-81
2022/11/10 12:06:20;;;;;;;14.55;2.55;;;14.90;99.90;;;;;;5031515;28;20658;-81
2022/11/10 12:09:13;;;;;;;14.00;2.28;;;14.90;99.90;;;;;;5052153;28;20060;-81
2022/11/10 12:12:12;;;;;;;13.07;2.00;;;14.90;99.90;;;;;;5035251;28;20047;-81
2022/11/10 12:15:04;;;;;;;12.50;2.20;;;14.90;99.90;;;;;;5040794;28;20132;-82
2022/11/10 12:17:54;;;;;;;17.05;3.17;;;14.90;99.90;;;;;;5044950;28;20142;-83
2022/11/10 12:20:47;;;;;;;13.73;2.45;;;15.00;99.90;;;;;;5031860;28;20121;-84
2022/11/10 12:23:40;;;;;;;12.98;2.78;;;15.00;99.90;;;;;;5039866;28;20091;-82
2022/11/10 12:26:34;;;;;;;15.55;2.60;;;15.00;99.90;;;;;;5038662;28;20114;-82
2022/11/10 12:29:28;;;;;;;12.80;2.33;;;15.00;99.90;;;;;;5042796;28;20059;-83
2022/11/10 12:32:19;;;;;;;11.02;2.10;;;15.00;99.90;;;;;;5051380;28;20514;-85
2022/11/10 12:35:06;;;;;;;;;;;15.00;99.90;;;;;;5051300;28;20055;-85
2022/11/10 12:37:55;;;;;;;9.10;2.10;;;15.10;99.90;;;;;;5057651;28;19931;-86
2022/11/10 12:40:43;;;;;;;12.30;2.40;;;15.10;99.90;;;;;;5036636;28;20055;-85
2022/11/10 12:43:35;;;;;;;10.32;1.88;;;15.10;99.90;;;;;;5040770;28;20063;-85
2022/11/10 12:46:21;;;;;;;;;;;15.10;99.90;;;;;;5035544;28;20187;-86
2022/11/10 12:49:16;;;;;;;12.82;1.92;;;15.10;99.90;;;;;;5045180;28;19931;-84
2022/11/10 12:52:06;;;;;;;10.15;2.03;;;15.10;99.90;;;;;;5047705;28;20052;-84
2022/11/10 12:54:52;;;;;;;12.23;1.80;;;15.10;99.90;;;;;;5048231;28;20063;-83
2022/11/10 12:57:38;;;;;;;11.65;2.38;;;15.10;99.90;;;;;;5041846;28;20059;-83
2022/11/10 13:00:25;;;;;;;8.07;1.80;;;15.10;99.90;;;;;;5044636;28;20055;-84
2022/11/10 13:03:24;;;;;;;9.15;1.50;;;15.10;99.90;;;;;;5035896;28;20077;-85
2022/11/10 13:06:23;;;;;;;12.75;1.80;;;15.10;99.90;;;;;;5050140;28;20139;-84
2022/11/10 13:09:24;;;;;;;13.90;2.08;;;15.20;99.90;;;;;;5049256;28;20099;-85
2022/11/10 13:12:18;;;;;;;10.73;1.63;;;15.10;99.90;;;;;;5049656;28;20075;-85
2022/11/10 13:15:39;;;;;;;8.88;1.90;;;15.10;99.90;;;;;;5051211;28;20058;-84
2022/11/10 13:18:59;;;;;;;6.60;1.80;;;15.10;99.90;;;;;;5043166;28;20207;-84
2022/11/10 13:22:10;;;;;;;9.43;1.73;;;15.20;99.90;;;;;;5042120;28;21195;-84
2022/11/10 13:25:28;;;;;;;9.40;1.75;;;15.10;99.90;;;;;;5033125;28;20060;-84
2022/11/10 13:28:14;;;;;;;8.20;1.67;;;15.20;99.90;;;;;;5042729;28;20086;-84
2022/11/10 13:30:59;;;;;;;10.57;1.60;;;15.20;99.90;;;;;;5053792;28;20051;-84
2022/11/10 13:34:05;;;;;;;10.20;1.85;;;15.20;99.90;;;;;;5041194;28;20059;-84
2022/11/10 13:36:51;;;;;;;5.97;1.48;;;15.20;99.90;;;;;;5049710;28;20110;-84
2022/11/10 13:39:36;;;;;;;8.63;1.60;;;15.20;99.90;;;;;;5049970;28;20048;-84
2022/11/10 13:42:23;;;;;;;14.70;2.50;;;15.20;99.90;;;;;;5054921;28;20056;-84
2022/11/10 13:45:29;;;;;;;11.05;1.63;;;15.20;99.90;;;;;;5049088;28;20060;-84
2022/11/10 13:48:23;;;;;;;7.90;1.60;;;15.20;99.90;;;;;;5049989;28;20087;-85
2022/11/10 13:51:17;;;;;;;12.57;1.77;;;15.20;99.90;;;;;;5042163;28;20056;-84
2022/11/10 13:54:19;;;;;;;6.22;1.40;;;15.20;99.90;;;;;;5034246;28;20047;-84
2022/11/10 13:57:14;;;;;;;7.38;1.48;;;15.20;99.90;;;;;;5044057;28;20186;-84
2022/11/10 14:00:02;;;;;;;12.43;2.90;;;15.20;99.90;;;;;;5046028;28;20421;-84
2022/11/10 14:02:53;;;;;;;14.20;2.83;;;15.20;99.90;;;;;;5051537;28;20180;-85
2022/11/10 14:06:13;;;;;;;7.18;1.55;;;15.20;99.90;;;;;;5041973;28;20048;-85
2022/11/10 14:09:03;;;;;;;11.02;2.05;;;15.20;99.90;;;;;;5029931;28;20096;-85
2022/11/10 14:11:50;;;;;;;10.70;2.05;;;15.20;99.90;;;;;;5042881;28;20183;-83
2022/11/10 14:14:45;;;;;;;5.72;1.50;;;15.20;99.90;;;;;;5051031;28;20401;-82
2022/11/10 14:17:34;;;;;;;9.13;1.70;;;15.20;99.90;;;;;;5050214;28;20071;-81
2022/11/10 14:20:22;;;;;;;8.70;1.90;;;15.20;99.90;;;;;;5048437;28;20117;-81
2022/11/10 14:23:18;;;;;;;10.18;1.98;;;15.30;99.90;;;;;;5062275;28;20121;-82
2022/11/10 14:26:05;;;;;;;6.70;1.42;;;15.30;99.90;;;;;;5065268;28;20044;-82
2022/11/10 14:28:51;;;;;;;7.20;1.35;;;15.30;99.90;;;;;;5066833;28;20051;-82
2022/11/10 14:31:37;;;;;;;13.85;2.45;;;15.30;99.90;;;;;;5045528;28;20052;-82
2022/11/10 14:34:23;;;;;;;8.88;1.60;;;15.30;99.90;;;;;;5049855;28;20183;-81
2022/11/10 14:37:16;;;;;;;11.27;1.95;;;15.30;99.90;;;;;;5038935;28;20070;-81
2022/11/10 14:40:04;;;;;;;8.40;1.52;;;15.30;99.90;;;;;;5044098;28;20052;-82
2022/11/10 14:42:50;;;;;;;11.55;2.08;;;15.20;99.90;;;;;;5032590;28;20061;-86
2022/11/10 14:45:37;;;;;;;7.22;1.48;;;15.20;99.90;;;;;;5041933;28;20057;-83